Time;durP1;ratioP1;P1;durP2;ratioP2;P2;SDS_P1;SDS_P2;PMS_P1;PMS_P2;Temp;Humidity;BMP_temperature;BMP_pressure;BME280_temperature;BME280_humidity;BME280_pressure;Samples;Min_cycle;Max_cycle;Signal;HPM_P1;HPM_P2
2023/10/23 00:01:34;;;;;;;2.70;1.67;;;14.10;99.90;;;;;;5006202;28;20235;-72
2023/10/23 00:04:01;;;;;;;1.60;1.50;;;14.20;99.90;;;;;;5009221;28;20666;-72
2023/10/23 00:06:28;;;;;;;1.50;1.40;;;14.20;99.90;;;;;;5004327;28;20326;-71
2023/10/23 00:08:56;;;;;;;1.20;1.20;;;14.30;99.90;;;;;;5011196;28;20250;-72
2023/10/23 00:11:24;;;;;;;1.37;1.27;;;14.20;99.90;;;;;;5018769;28;20202;-71
2023/10/23 00:13:51;;;;;;;1.23;1.17;;;14.20;99.90;;;;;;5012280;28;20289;-72
2023/10/23 00:16:19;;;;;;;1.30;1.30;;;14.20;99.90;;;;;;5017725;28;20263;-72
2023/10/23 00:18:48;;;;;;;1.63;1.53;;;14.20;99.90;;;;;;5007401;28;20195;-70
2023/10/23 00:21:15;;;;;;;1.50;1.40;;;14.20;99.90;;;;;;5013882;28;20203;-71
2023/10/23 00:23:42;;;;;;;1.20;1.20;;;14.30;99.90;;;;;;5011407;28;20202;-71
2023/10/23 00:26:10;;;;;;;1.33;1.20;;;14.30;99.90;;;;;;5014061;28;20278;-72
2023/10/23 00:28:39;;;;;;;2.30;1.20;;;14.20;99.90;;;;;;5011418;28;20274;-70
2023/10/23 00:31:07;;;;;;;1.67;1.47;;;14.20;99.90;;;;;;5010727;28;20218;-71
2023/10/23 00:33:34;;;;;;;1.40;1.30;;;14.20;99.90;;;;;;5004898;28;20225;-71
2023/10/23 00:36:01;;;;;;;1.40;1.30;;;14.20;99.90;;;;;;5010796;28;20204;-71
2023/10/23 00:38:28;;;;;;;1.63;1.40;;;14.30;99.90;;;;;;5001693;28;20195;-71
2023/10/23 00:40:55;;;;;;;1.60;1.50;;;14.20;99.90;;;;;;5013694;28;20705;-71
2023/10/23 00:43:25;;;;;;;1.57;1.47;;;14.20;99.90;;;;;;5011567;28;20250;-71
2023/10/23 00:45:56;;;;;;;1.60;1.50;;;14.20;99.90;;;;;;5011674;28;20197;-71
2023/10/23 00:48:24;;;;;;;1.70;1.60;;;14.20;99.90;;;;;;5009215;28;20928;-71
2023/10/23 00:50:53;;;;;;;1.30;1.30;;;14.10;99.90;;;;;;5010597;28;20233;-71
2023/10/23 00:53:22;;;;;;;2.00;1.90;;;14.20;99.90;;;;;;5008199;28;20207;-72
2023/10/23 00:55:51;;;;;;;1.70;1.60;;;14.20;99.90;;;;;;5008475;28;20225;-72
2023/10/23 00:58:19;;;;;;;1.50;1.40;;;14.20;99.90;;;;;;5005361;28;20211;-72
2023/10/23 01:03:30;;;;;;;2.20;2.00;;;14.10;99.90;;;;;;5087005;22;20645;-62
2023/10/23 01:05:57;;;;;;;3.07;1.57;;;14.10;99.90;;;;;;5023206;28;20869;-61
2023/10/23 01:08:24;;;;;;;3.17;1.20;;;14.20;99.90;;;;;;5033027;28;20218;-61
2023/10/23 01:10:52;;;;;;;1.50;1.40;;;14.10;99.90;;;;;;5024832;28;20261;-61
2023/10/23 01:13:19;;;;;;;1.10;1.00;;;14.10;99.90;;;;;;5010150;28;20252;-62
2023/10/23 01:15:46;;;;;;;1.40;1.30;;;14.20;99.90;;;;;;5029748;28;20214;-61
2023/10/23 01:18:13;;;;;;;2.37;1.17;;;14.20;99.90;;;;;;5006176;28;20565;-62
2023/10/23 01:20:42;;;;;;;1.40;1.20;;;14.10;99.90;;;;;;5006922;28;20198;-61
2023/10/23 01:23:09;;;;;;;1.13;1.03;;;14.20;99.90;;;;;;5027232;28;20193;-61
2023/10/23 01:25:38;;;;;;;0.90;0.90;;;14.20;99.90;;;;;;5029945;28;20210;-61
2023/10/23 01:28:05;;;;;;;0.80;0.80;;;14.20;99.90;;;;;;5015950;28;20225;-61
2023/10/23 01:30:33;;;;;;;0.80;0.80;;;14.20;99.90;;;;;;5028151;28;20230;-62
2023/10/23 01:33:01;;;;;;;0.87;0.87;;;14.20;99.90;;;;;;5010244;28;20198;-61
2023/10/23 01:35:28;;;;;;;0.70;0.70;;;14.20;99.90;;;;;;5022512;28;20674;-61
2023/10/23 01:37:56;;;;;;;2.00;0.80;;;14.20;99.90;;;;;;5029329;28;20649;-62
2023/10/23 01:40:23;;;;;;;0.77;0.77;;;14.20;99.90;;;;;;5010594;28;20210;-62
2023/10/23 01:42:51;;;;;;;0.60;0.60;;;14.20;99.90;;;;;;5004343;28;20721;-62
2023/10/23 01:45:19;;;;;;;0.60;0.60;;;14.20;99.90;;;;;;5029393;28;20605;-62
2023/10/23 01:47:46;;;;;;;0.70;0.70;;;14.20;99.90;;;;;;5027641;28;20257;-61
2023/10/23 01:50:13;;;;;;;0.60;0.60;;;14.20;99.90;;;;;;5021046;28;20210;-61
2023/10/23 01:52:41;;;;;;;0.70;0.70;;;14.20;99.90;;;;;;5027534;28;20194;-60
2023/10/23 01:55:08;;;;;;;0.40;0.40;;;14.20;99.90;;;;;;5010874;28;20661;-61
2023/10/23 01:57:35;;;;;;;0.60;0.60;;;14.10;99.90;;;;;;5016708;28;20233;-61
2023/10/23 02:00:05;;;;;;;0.50;0.50;;;14.10;99.90;;;;;;5023380;28;20952;-61
2023/10/23 02:02:42;;;;;;;0.70;0.70;;;14.10;99.90;;;;;;5007750;28;20311;-60
2023/10/23 02:05:10;;;;;;;0.60;0.60;;;14.60;99.90;;;;;;5024599;28;20198;-61
2023/10/23 02:07:37;;;;;;;0.53;0.53;;;14.10;99.90;;;;;;5024952;28;20669;-61
2023/10/23 02:10:04;;;;;;;0.77;0.73;;;14.10;99.90;;;;;;5028403;28;20249;-61
2023/10/23 02:12:33;;;;;;;0.57;0.50;;;14.10;99.90;;;;;;5024922;28;20251;-61
2023/10/23 02:15:00;;;;;;;0.50;0.50;;;14.10;99.90;;;;;;5001479;28;20195;-61
2023/10/23 02:17:29;;;;;;;0.50;0.50;;;14.10;99.90;;;;;;5028375;28;20293;-61
2023/10/23 02:19:56;;;;;;;0.47;0.47;;;14.10;99.90;;;;;;5027584;28;20199;-61
2023/10/23 02:22:23;;;;;;;0.40;0.40;;;14.10;99.90;;;;;;5002866;28;20365;-62
2023/10/23 02:24:50;;;;;;;0.30;0.30;;;14.10;99.90;;;;;;5027856;28;20645;-61
2023/10/23 02:27:19;;;;;;;0.50;0.50;;;14.10;99.90;;;;;;5028971;28;20218;-61
2023/10/23 02:29:46;;;;;;;0.40;0.40;;;14.10;99.90;;;;;;5018814;28;20209;-61
2023/10/23 02:32:14;;;;;;;0.40;0.40;;;14.10;99.90;;;;;;5005483;28;20210;-61
2023/10/23 02:34:43;;;;;;;0.43;0.43;;;14.10;99.90;;;;;;5028253;28;20211;-61
2023/10/23 02:37:10;;;;;;;0.40;0.40;;;14.10;99.90;;;;;;5023995;28;20184;-61
2023/10/23 02:39:38;;;;;;;0.70;0.70;;;14.10;99.90;;;;;;5022662;28;20584;-61
2023/10/23 02:42:05;;;;;;;0.50;0.50;;;14.10;99.90;;;;;;5028592;28;20230;-62
2023/10/23 02:44:32;;;;;;;0.57;0.57;;;14.10;99.90;;;;;;5024530;28;20203;-61
2023/10/23 02:46:59;;;;;;;0.50;0.50;;;14.10;99.90;;;;;;5015500;28;20218;-61
2023/10/23 02:49:26;;;;;;;0.97;0.60;;;14.10;99.90;;;;;;5024677;28;20218;-61
2023/10/23 02:51:54;;;;;;;0.43;0.43;;;14.20;99.90;;;;;;5005060;28;20225;-61
2023/10/23 02:54:22;;;;;;;0.33;0.33;;;14.20;99.90;;;;;;5021875;28;20271;-62
2023/10/23 02:56:49;;;;;;;0.50;0.50;;;14.20;99.90;;;;;;5018957;28;20612;-61
2023/10/23 02:59:16;;;;;;;0.87;0.50;;;14.20;99.90;;;;;;5028446;28;20209;-61
2023/10/23 03:01:43;;;;;;;0.70;0.70;;;14.10;99.90;;;;;;5008759;28;20207;-62
2023/10/23 03:04:10;;;;;;;0.40;0.40;;;14.10;99.90;;;;;;4997062;28;20242;-62
2023/10/23 03:06:37;;;;;;;0.40;0.40;;;14.10;99.90;;;;;;5012698;28;20214;-62
2023/10/23 03:09:05;;;;;;;0.80;0.50;;;14.20;99.90;;;;;;5008671;28;20718;-62
2023/10/23 03:11:33;;;;;;;0.40;0.40;;;14.20;99.90;;;;;;5002717;28;20526;-62
2023/10/23 03:14:00;;;;;;;0.50;0.50;;;14.20;99.90;;;;;;5008891;28;20597;-62
2023/10/23 03:16:29;;;;;;;0.50;0.50;;;14.10;99.90;;;;;;5010830;28;20306;-62
2023/10/23 03:18:56;;;;;;;0.53;0.53;;;14.10;99.90;;;;;;5006389;28;20210;-62
2023/10/23 03:21:23;;;;;;;0.33;0.33;;;14.20;99.90;;;;;;5012272;28;20210;-62
2023/10/23 03:23:50;;;;;;;0.60;0.60;;;14.10;99.90;;;;;;5013095;28;20191;-62
2023/10/23 03:26:18;;;;;;;0.50;0.50;;;14.20;99.90;;;;;;5005200;28;20709;-62
2023/10/23 03:28:47;;;;;;;0.43;0.43;;;14.20;99.90;;;;;;5012138;28;20211;-62
2023/10/23 03:31:14;;;;;;;0.40;0.37;;;14.20;99.90;;;;;;5012165;28;20208;-62
2023/10/23 03:33:42;;;;;;;0.40;0.40;;;14.20;99.90;;;;;;4999922;28;20219;-62
2023/10/23 03:36:09;;;;;;;0.40;0.40;;;14.20;99.90;;;;;;5006507;28;20195;-62
2023/10/23 03:38:36;;;;;;;0.50;0.50;;;14.20;99.90;;;;;;5008764;28;20566;-62
2023/10/23 03:41:03;;;;;;;0.77;0.60;;;14.20;99.90;;;;;;5008008;28;20219;-62
2023/10/23 03:43:32;;;;;;;0.40;0.40;;;14.10;99.90;;;;;;5006250;28;20555;-62
2023/10/23 03:46:03;;;;;;;0.50;0.50;;;14.10;99.90;;;;;;5011106;28;20209;-62
2023/10/23 03:48:30;;;;;;;0.83;0.60;;;14.00;99.90;;;;;;5007738;28;20241;-61
2023/10/23 03:51:00;;;;;;;0.80;0.80;;;14.00;99.90;;;;;;5011301;28;20210;-62
2023/10/23 03:53:27;;;;;;;1.10;1.00;;;14.00;99.90;;;;;;5012346;28;20733;-61
2023/10/23 03:55:55;;;;;;;0.80;0.80;;;13.90;99.90;;;;;;5006833;28;20266;-61
2023/10/23 03:58:22;;;;;;;1.27;1.00;;;13.90;99.90;;;;;;5006287;28;20195;-61
2023/10/23 04:00:54;;;;;;;1.10;1.00;;;13.90;99.90;;;;;;5012371;28;20293;-61
2023/10/23 04:03:22;;;;;;;1.77;0.90;;;13.90;99.90;;;;;;5005926;28;20223;-61
2023/10/23 04:05:50;;;;;;;1.37;0.87;;;13.80;99.90;;;;;;5011520;28;20629;-61
2023/10/23 04:08:17;;;;;;;1.30;0.93;;;13.80;99.90;;;;;;5008869;28;20222;-62
2023/10/23 04:10:47;;;;;;;1.00;1.00;;;13.80;99.90;;;;;;5009849;28;20283;-62
2023/10/23 04:13:14;;;;;;;1.07;0.97;;;13.80;99.90;;;;;;5004733;28;20285;-62
2023/10/23 04:15:51;;;;;;;1.23;1.13;;;13.80;99.90;;;;;;5012670;28;20211;-61
2023/10/23 04:18:19;;;;;;;1.07;1.07;;;13.80;99.90;;;;;;5010897;28;20219;-61
2023/10/23 04:20:46;;;;;;;1.40;1.30;;;13.70;99.90;;;;;;5003620;28;20195;-62
2023/10/23 04:23:13;;;;;;;1.40;1.30;;;13.70;99.90;;;;;;5012109;28;20203;-61
2023/10/23 04:25:40;;;;;;;1.87;1.50;;;13.70;99.90;;;;;;5010099;28;20199;-61
2023/10/23 04:28:08;;;;;;;0.97;0.90;;;13.70;99.90;;;;;;5002832;28;21281;-62
2023/10/23 04:30:35;;;;;;;0.97;0.97;;;13.70;99.90;;;;;;5007946;28;20281;-61
2023/10/23 04:33:02;;;;;;;1.53;1.10;;;13.60;99.90;;;;;;5010456;28;20199;-61
2023/10/23 04:35:33;;;;;;;2.97;1.47;;;13.60;99.90;;;;;;5002766;28;20191;-62
2023/10/23 04:38:00;;;;;;;1.00;1.00;;;13.60;99.90;;;;;;5007675;28;20531;-62
2023/10/23 04:40:27;;;;;;;4.57;1.10;;;13.60;99.90;;;;;;5010228;28;20290;-61
2023/10/23 04:42:54;;;;;;;1.00;0.90;;;13.60;99.90;;;;;;5007067;28;20203;-61
2023/10/23 04:45:21;;;;;;;1.10;1.00;;;13.60;99.90;;;;;;5004504;28;20257;-62
2023/10/23 04:47:50;;;;;;;1.00;1.00;;;13.60;99.90;;;;;;5010511;28;20297;-62
2023/10/23 04:50:17;;;;;;;3.60;1.17;;;13.60;99.90;;;;;;5010887;28;20262;-61
2023/10/23 04:52:45;;;;;;;3.03;1.30;;;13.50;99.90;;;;;;5002171;28;20219;-61
2023/10/23 04:55:13;;;;;;;1.13;1.03;;;13.60;99.90;;;;;;5010822;28;20214;-62
2023/10/23 04:57:40;;;;;;;1.07;1.03;;;13.50;99.90;;;;;;5010668;28;20199;-62
2023/10/23 05:00:08;;;;;;;1.10;1.00;;;13.50;99.90;;;;;;5002300;28;20241;-62
2023/10/23 05:02:36;;;;;;;1.10;1.00;;;13.50;99.90;;;;;;5013277;28;20238;-62
2023/10/23 05:05:03;;;;;;;1.20;1.10;;;13.50;99.90;;;;;;5029532;28;20225;-61
2023/10/23 05:07:33;;;;;;;1.47;1.37;;;13.50;99.90;;;;;;5016494;28;20198;-62
2023/10/23 05:10:04;;;;;;;1.40;1.30;;;13.50;99.90;;;;;;5021741;28;20213;-62
2023/10/23 05:12:31;;;;;;;1.00;1.00;;;13.50;99.90;;;;;;5038475;28;20278;-62
2023/10/23 05:14:58;;;;;;;1.17;1.10;;;13.50;99.90;;;;;;5030421;28;20233;-62
2023/10/23 05:17:25;;;;;;;1.30;1.20;;;13.50;99.90;;;;;;5004534;28;20298;-61
2023/10/23 05:19:54;;;;;;;1.23;1.10;;;13.40;99.90;;;;;;5000785;28;20233;-61
2023/10/23 05:22:21;;;;;;;1.13;1.10;;;13.40;99.90;;;;;;5030259;28;20286;-63
2023/10/23 05:24:49;;;;;;;1.30;1.00;;;13.50;99.90;;;;;;5026790;28;20210;-61
2023/10/23 05:27:18;;;;;;;1.50;1.40;;;13.50;99.90;;;;;;4998792;28;20263;-61
2023/10/23 05:29:45;;;;;;;1.30;1.10;;;13.50;99.90;;;;;;5029947;28;20689;-63
2023/10/23 05:32:12;;;;;;;1.83;1.17;;;13.50;99.90;;;;;;5026006;28;20730;-62
2023/10/23 05:34:39;;;;;;;0.80;0.80;;;13.50;99.90;;;;;;5023528;28;20194;-63
2023/10/23 05:37:06;;;;;;;0.90;0.90;;;13.50;99.90;;;;;;5029864;28;20210;-62
2023/10/23 05:39:34;;;;;;;1.10;1.10;;;13.50;99.90;;;;;;5025459;28;20230;-62
2023/10/23 05:42:01;;;;;;;1.10;1.10;;;13.50;99.90;;;;;;5022822;28;20198;-62
2023/10/23 05:44:29;;;;;;;1.40;1.00;;;13.50;99.90;;;;;;5029350;28;20275;-62
2023/10/23 05:46:56;;;;;;;0.80;0.80;;;13.40;99.90;;;;;;5029270;28;20190;-62
2023/10/23 05:49:24;;;;;;;2.33;1.07;;;13.40;99.90;;;;;;5019505;28;20210;-62
2023/10/23 05:51:53;;;;;;;1.10;1.10;;;13.40;99.90;;;;;;5027478;28;20239;-62
2023/10/23 05:54:20;;;;;;;1.33;0.90;;;13.40;99.90;;;;;;5029852;28;20230;-62
2023/10/23 05:56:47;;;;;;;0.83;0.83;;;13.40;99.90;;;;;;5006081;28;20209;-62
2023/10/23 05:59:14;;;;;;;1.10;1.00;;;13.40;99.90;;;;;;5028961;28;20262;-62
2023/10/23 06:01:45;;;;;;;0.90;0.90;;;13.40;99.90;;;;;;5017216;28;20201;-61
2023/10/23 06:04:13;;;;;;;1.13;1.03;;;13.40;99.90;;;;;;5017704;28;20567;-61
2023/10/23 06:06:40;;;;;;;0.97;0.97;;;13.40;99.90;;;;;;5023610;28;20657;-61
2023/10/23 06:09:07;;;;;;;1.70;1.10;;;13.40;99.90;;;;;;5025336;28;20222;-61
2023/10/23 06:11:37;;;;;;;0.97;0.97;;;13.40;99.90;;;;;;5023328;28;20283;-62
2023/10/23 06:14:07;;;;;;;1.10;1.10;;;13.40;99.90;;;;;;5013833;28;20195;-62
2023/10/23 06:16:34;;;;;;;1.00;1.00;;;13.50;99.90;;;;;;5023520;28;20256;-62
2023/10/23 06:19:05;;;;;;;1.77;0.87;;;13.50;99.90;;;;;;5025735;28;20720;-62
2023/10/23 06:21:32;;;;;;;1.00;0.97;;;13.50;99.90;;;;;;5020183;28;20206;-62
2023/10/23 06:23:59;;;;;;;0.70;0.70;;;13.50;99.90;;;;;;5020569;28;20202;-62
2023/10/23 06:26:28;;;;;;;1.10;1.07;;;13.40;99.90;;;;;;5017619;28;20646;-61
2023/10/23 06:28:56;;;;;;;1.30;1.20;;;13.40;99.90;;;;;;5024616;28;20245;-61
2023/10/23 06:31:23;;;;;;;1.40;1.30;;;13.40;99.90;;;;;;5002039;28;20230;-61
2023/10/23 06:33:51;;;;;;;1.43;1.30;;;13.40;99.90;;;;;;5026584;28;20352;-61
2023/10/23 06:36:20;;;;;;;1.47;1.30;;;13.30;99.90;;;;;;5027810;28;20587;-61
2023/10/23 06:38:47;;;;;;;1.00;0.90;;;13.30;99.90;;;;;;5023164;28;20281;-61
2023/10/23 06:41:14;;;;;;;1.40;1.30;;;13.30;99.90;;;;;;5026027;28;20284;-61
2023/10/23 06:43:41;;;;;;;0.80;0.80;;;13.30;99.90;;;;;;5024750;28;20280;-62
2023/10/23 06:46:08;;;;;;;1.30;1.07;;;13.30;99.90;;;;;;5018161;28;20573;-61
2023/10/23 06:48:44;;;;;;;1.10;1.10;;;13.30;99.90;;;;;;5007972;28;20294;-62
2023/10/23 06:51:11;;;;;;;1.20;1.10;;;13.30;99.90;;;;;;5025148;28;20199;-61
2023/10/23 06:53:40;;;;;;;2.10;1.17;;;13.30;99.90;;;;;;5019646;28;20210;-61
2023/10/23 06:56:09;;;;;;;1.73;1.50;;;13.30;99.90;;;;;;5025065;28;20202;-61
2023/10/23 06:58:36;;;;;;;1.40;1.30;;;13.30;99.90;;;;;;5030347;28;20334;-62
2023/10/23 07:01:08;;;;;;;0.93;0.93;;;13.30;99.90;;;;;;5008534;28;20217;-62
2023/10/23 07:03:36;;;;;;;1.40;1.30;;;13.30;99.90;;;;;;5019035;28;20235;-62
2023/10/23 07:06:07;;;;;;;1.60;1.40;;;13.20;99.90;;;;;;5029906;28;20297;-61
2023/10/23 07:08:34;;;;;;;1.77;1.27;;;13.30;99.90;;;;;;5034797;28;20595;-61
2023/10/23 07:11:03;;;;;;;1.47;1.20;;;13.30;99.90;;;;;;5016947;28;20194;-62
2023/10/23 07:13:30;;;;;;;1.10;1.10;;;13.30;99.90;;;;;;5028239;28;20679;-62
2023/10/23 07:15:57;;;;;;;1.90;1.13;;;13.30;99.90;;;;;;5030944;28;20202;-62
2023/10/23 07:18:27;;;;;;;1.20;1.10;;;13.40;99.90;;;;;;5025928;28;20194;-62
2023/10/23 07:20:56;;;;;;;2.00;1.40;;;13.40;99.90;;;;;;5027199;28;20209;-62
2023/10/23 07:23:23;;;;;;;1.10;1.10;;;13.50;99.90;;;;;;5030400;28;20702;-62
2023/10/23 07:26:07;;;;;;;1.63;1.40;;;13.50;99.90;;;;;;5027568;28;20216;-61
2023/10/23 07:28:35;;;;;;;1.40;1.30;;;13.40;99.90;;;;;;5025341;28;20340;-61
2023/10/23 07:31:03;;;;;;;2.07;1.20;;;13.40;99.90;;;;;;5029693;28;20206;-61
2023/10/23 07:33:33;;;;;;;1.47;1.23;;;13.50;99.90;;;;;;5027248;28;20198;-61
2023/10/23 07:36:02;;;;;;;1.10;0.93;;;13.50;99.90;;;;;;5026378;28;20201;-61
2023/10/23 07:38:29;;;;;;;3.07;1.40;;;13.50;99.90;;;;;;5030573;28;20194;-61
2023/10/23 07:40:57;;;;;;;1.30;1.20;;;13.50;99.90;;;;;;5028762;28;20199;-62
2023/10/23 07:43:26;;;;;;;2.10;1.40;;;13.50;99.90;;;;;;5023994;28;20198;-61
2023/10/23 07:45:53;;;;;;;1.50;1.40;;;13.50;99.90;;;;;;5028839;28;20641;-62
2023/10/23 07:48:22;;;;;;;1.70;1.60;;;13.50;99.90;;;;;;5029083;28;20190;-61
2023/10/23 07:50:50;;;;;;;1.30;1.20;;;13.50;99.90;;;;;;5022153;28;20230;-63
2023/10/23 07:53:17;;;;;;;1.77;1.43;;;13.60;99.90;;;;;;5010668;28;20211;-64
2023/10/23 07:55:44;;;;;;;1.90;1.33;;;13.60;99.90;;;;;;5029868;28;20652;-64
2023/10/23 07:58:11;;;;;;;1.53;1.10;;;13.60;99.90;;;;;;5021587;28;20243;-64
2023/10/23 08:00:39;;;;;;;1.30;1.20;;;13.60;99.90;;;;;;5025685;28;20696;-64
2023/10/23 08:03:06;;;;;;;1.53;1.27;;;13.60;99.90;;;;;;5026964;28;20249;-64
2023/10/23 08:05:33;;;;;;;1.10;1.00;;;13.60;99.90;;;;;;5026226;28;20238;-64
2023/10/23 08:08:01;;;;;;;1.80;1.07;;;13.60;99.90;;;;;;5013664;28;20218;-64
2023/10/23 08:10:28;;;;;;;1.40;1.10;;;13.70;99.90;;;;;;5022767;28;20218;-64
2023/10/23 08:12:55;;;;;;;1.00;1.00;;;13.70;99.90;;;;;;5028779;28;20702;-64
2023/10/23 08:15:22;;;;;;;1.20;1.13;;;13.80;99.90;;;;;;4988368;28;20282;-63
2023/10/23 08:17:53;;;;;;;1.53;1.20;;;13.70;99.90;;;;;;5010708;28;20226;-63
2023/10/23 08:20:20;;;;;;;1.17;1.17;;;13.80;99.90;;;;;;5027825;28;20182;-64
2023/10/23 08:22:47;;;;;;;1.23;1.00;;;13.80;99.90;;;;;;5007369;28;20206;-63
2023/10/23 08:25:15;;;;;;;1.60;1.50;;;13.90;99.90;;;;;;5027237;28;20194;-64
2023/10/23 08:27:42;;;;;;;5.33;1.87;;;13.80;99.90;;;;;;5028805;28;20190;-64
2023/10/23 08:30:10;;;;;;;1.77;1.60;;;13.90;99.90;;;;;;5019612;28;20386;-64
2023/10/23 08:32:37;;;;;;;2.00;1.50;;;13.90;99.90;;;;;;5022140;28;20253;-64
2023/10/23 08:35:07;;;;;;;1.70;1.60;;;13.90;99.90;;;;;;5027651;28;20194;-64
2023/10/23 08:37:34;;;;;;;3.00;1.40;;;13.90;99.90;;;;;;5019981;28;20213;-64
2023/10/23 08:40:03;;;;;;;1.80;1.60;;;13.90;99.90;;;;;;5028510;28;20190;-64
2023/10/23 08:42:31;;;;;;;2.77;2.07;;;13.90;99.90;;;;;;5024461;28;20537;-64
2023/10/23 08:45:00;;;;;;;4.23;2.20;;;14.00;99.90;;;;;;5023324;28;20289;-64
2023/10/23 08:47:27;;;;;;;1.50;1.40;;;14.00;99.90;;;;;;5010486;28;20203;-64
2023/10/23 08:49:59;;;;;;;1.50;1.40;;;14.00;99.90;;;;;;5028554;28;20221;-64
2023/10/23 08:52:33;;;;;;;1.50;1.40;;;14.00;99.90;;;;;;5022583;28;20194;-64
2023/10/23 08:55:02;;;;;;;2.07;1.40;;;14.00;99.90;;;;;;5027124;28;20223;-64
2023/10/23 08:57:30;;;;;;;2.17;1.23;;;14.00;99.90;;;;;;5027773;28;20200;-64
2023/10/23 08:59:57;;;;;;;1.20;1.10;;;14.00;99.90;;;;;;5025893;28;21007;-65
2023/10/23 09:02:25;;;;;;;1.23;0.90;;;14.10;99.90;;;;;;5027812;28;20252;-64
2023/10/23 09:04:52;;;;;;;0.90;0.90;;;14.10;99.90;;;;;;5028547;28;20199;-64
2023/10/23 09:07:19;;;;;;;3.33;1.20;;;14.10;99.90;;;;;;5019410;28;20244;-64
2023/10/23 09:09:48;;;;;;;1.73;1.10;;;14.10;99.90;;;;;;5006298;28;20215;-64
2023/10/23 09:12:31;;;;;;;1.30;1.10;;;14.10;99.90;;;;;;5029038;28;20570;-64
2023/10/23 09:14:58;;;;;;;1.17;1.00;;;14.20;99.90;;;;;;5022606;28;20209;-64
2023/10/23 09:17:27;;;;;;;4.53;1.20;;;14.30;99.90;;;;;;5026973;28;20202;-64
2023/10/23 09:19:54;;;;;;;1.30;1.20;;;14.20;99.90;;;;;;5027797;28;20286;-64
2023/10/23 09:22:21;;;;;;;0.90;0.90;;;14.20;99.90;;;;;;5004978;28;20257;-64
2023/10/23 09:24:50;;;;;;;1.40;1.00;;;14.30;99.90;;;;;;5028821;28;20205;-64
2023/10/23 09:27:24;;;;;;;1.00;1.00;;;14.30;99.90;;;;;;5022144;28;20586;-64
2023/10/23 09:30:00;;;;;;;1.23;1.00;;;14.30;99.90;;;;;;5020270;28;20222;-64
2023/10/23 09:32:27;;;;;;;0.90;0.90;;;14.30;99.90;;;;;;5020862;28;20197;-64
2023/10/23 09:34:56;;;;;;;1.07;0.83;;;14.40;99.90;;;;;;5013726;28;20488;-65
2023/10/23 09:37:25;;;;;;;1.10;0.90;;;14.40;99.90;;;;;;5027412;28;20571;-64
2023/10/23 09:39:54;;;;;;;0.70;0.70;;;14.40;99.90;;;;;;5021588;28;20225;-64
2023/10/23 09:42:23;;;;;;;0.70;0.70;;;14.50;99.90;;;;;;5025928;28;20226;-64
2023/10/23 09:44:52;;;;;;;0.70;0.70;;;14.50;99.90;;;;;;5026171;28;20197;-63
2023/10/23 09:47:20;;;;;;;0.70;0.70;;;14.60;99.90;;;;;;5014287;28;20198;-63
2023/10/23 09:49:50;;;;;;;0.70;0.70;;;14.60;99.90;;;;;;5008101;28;20391;-64
2023/10/23 09:52:19;;;;;;;0.80;0.80;;;14.70;99.90;;;;;;5026323;28;20252;-63
2023/10/23 09:54:50;;;;;;;1.23;1.07;;;14.80;99.90;;;;;;5020866;28;20325;-63
2023/10/23 09:57:21;;;;;;;1.00;1.00;;;15.00;99.90;;;;;;5026001;28;20202;-64
2023/10/23 09:59:58;;;;;;;0.70;0.70;;;15.10;99.90;;;;;;5025855;28;20201;-64
2023/10/23 10:02:29;;;;;;;1.70;1.10;;;15.20;99.90;;;;;;5001145;28;20230;-64
2023/10/23 10:05:02;;;;;;;0.80;0.80;;;15.50;99.90;;;;;;5021761;28;20272;-63
2023/10/23 10:07:36;;;;;;;1.17;1.00;;;15.60;99.90;;;;;;5026320;28;20581;-64
2023/10/23 10:10:05;;;;;;;0.73;0.73;;;15.60;99.90;;;;;;5018512;28;20225;-63
2023/10/23 10:12:37;;;;;;;0.60;0.60;;;15.50;99.90;;;;;;5023018;28;20302;-64
2023/10/23 10:15:08;;;;;;;1.80;0.93;;;15.50;99.90;;;;;;5024613;28;20578;-64
2023/10/23 10:17:37;;;;;;;1.67;0.80;;;15.50;99.90;;;;;;5016982;28;20721;-63
2023/10/23 10:20:05;;;;;;;4.03;1.10;;;15.50;99.90;;;;;;5025765;28;20191;-64
2023/10/23 10:22:35;;;;;;;0.80;0.80;;;15.60;99.90;;;;;;5011427;28;20318;-63
2023/10/23 10:25:05;;;;;;;0.60;0.60;;;15.60;99.90;;;;;;5014536;28;20197;-64
2023/10/23 10:27:33;;;;;;;0.70;0.70;;;15.60;99.90;;;;;;5027093;28;20195;-63
2023/10/23 10:30:04;;;;;;;0.60;0.50;;;15.60;99.90;;;;;;5027357;28;20232;-63
2023/10/23 10:32:32;;;;;;;0.80;0.80;;;15.60;99.90;;;;;;5017672;28;20693;-64
2023/10/23 10:35:03;;;;;;;1.17;1.07;;;15.60;99.90;;;;;;5026360;28;20200;-63
2023/10/23 10:37:31;;;;;;;1.37;0.93;;;15.60;99.90;;;;;;5027283;28;20194;-63
2023/10/23 10:40:11;;;;;;;2.63;0.77;;;15.60;99.90;;;;;;5015181;28;20329;-63
2023/10/23 10:42:41;;;;;;;0.73;0.70;;;15.60;99.90;;;;;;5002288;28;20604;-64
2023/10/23 10:45:18;;;;;;;0.83;0.77;;;15.50;99.90;;;;;;5022435;28;20206;-63
2023/10/23 10:47:51;;;;;;;1.40;0.83;;;15.50;99.90;;;;;;5022417;28;20195;-64
2023/10/23 10:50:35;;;;;;;1.33;0.87;;;15.50;99.90;;;;;;5011467;28;20225;-63
2023/10/23 10:53:04;;;;;;;1.40;0.90;;;15.50;99.90;;;;;;5026130;28;20197;-63
2023/10/23 10:55:32;;;;;;;0.73;0.60;;;15.60;99.90;;;;;;5026499;28;20203;-64
2023/10/23 10:58:01;;;;;;;0.60;0.60;;;15.60;99.90;;;;;;5006242;28;22593;-63
2023/10/23 11:00:30;;;;;;;2.10;0.80;;;15.60;99.90;;;;;;5016765;28;20201;-63
2023/10/23 11:02:57;;;;;;;0.93;0.70;;;15.60;99.90;;;;;;5024093;28;20227;-64
2023/10/23 11:05:24;;;;;;;0.80;0.57;;;15.60;99.90;;;;;;5026350;28;20281;-64
2023/10/23 11:07:52;;;;;;;0.60;0.60;;;15.60;99.90;;;;;;5015196;28;20221;-64
2023/10/23 11:10:19;;;;;;;0.60;0.60;;;15.60;99.90;;;;;;5025041;28;20211;-64
2023/10/23 11:12:47;;;;;;;1.47;0.63;;;15.60;99.90;;;;;;5026089;28;20195;-64
2023/10/23 11:15:15;;;;;;;0.67;0.67;;;15.60;99.90;;;;;;5005256;28;20215;-63
2023/10/23 11:17:42;;;;;;;0.90;0.80;;;15.60;99.90;;;;;;5020634;28;20277;-63
2023/10/23 11:20:11;;;;;;;1.40;0.90;;;15.60;99.90;;;;;;5006290;28;20210;-63
2023/10/23 11:22:42;;;;;;;0.83;0.70;;;15.60;99.90;;;;;;5023767;28;20305;-63
2023/10/23 11:25:12;;;;;;;1.57;0.57;;;15.60;99.90;;;;;;5018206;28;20187;-63
2023/10/23 11:27:41;;;;;;;1.00;0.70;;;15.60;99.90;;;;;;4988772;28;20209;-64
2023/10/23 11:30:09;;;;;;;1.43;0.70;;;15.60;99.90;;;;;;5022452;28;20215;-64
2023/10/23 11:32:39;;;;;;;0.70;0.70;;;15.50;99.90;;;;;;5026723;28;20698;-64
2023/10/23 11:35:07;;;;;;;0.70;0.70;;;15.50;99.90;;;;;;5007094;28;20230;-64
2023/10/23 11:37:38;;;;;;;1.07;0.70;;;15.50;99.90;;;;;;5029003;28;20210;-64
2023/10/23 11:40:09;;;;;;;1.20;0.80;;;15.50;99.90;;;;;;5029538;28;20191;-64
2023/10/23 11:42:46;;;;;;;0.60;0.60;;;15.50;99.90;;;;;;5027837;28;20207;-64
2023/10/23 11:45:13;;;;;;;0.60;0.60;;;15.50;99.90;;;;;;5028144;28;20699;-64
2023/10/23 11:47:42;;;;;;;0.80;0.80;;;15.60;99.90;;;;;;5031802;28;20214;-64
2023/10/23 11:50:12;;;;;;;3.33;1.87;;;15.60;99.90;;;;;;5028955;28;20277;-63
2023/10/23 11:52:44;;;;;;;2.10;1.00;;;15.60;99.90;;;;;;5029199;28;20190;-64
2023/10/23 11:55:12;;;;;;;0.90;0.90;;;15.60;99.90;;;;;;5030032;28;20230;-64
2023/10/23 11:57:41;;;;;;;1.10;0.87;;;15.60;99.90;;;;;;5011079;28;20202;-65
2023/10/23 12:00:13;;;;;;;0.80;0.80;;;15.60;99.90;;;;;;5029855;28;20273;-64
2023/10/23 12:02:43;;;;;;;0.80;0.80;;;15.60;99.90;;;;;;5010355;28;20267;-64
2023/10/23 12:05:16;;;;;;;0.97;0.70;;;15.60;99.90;;;;;;5011179;28;20206;-64
2023/10/23 12:07:44;;;;;;;1.23;0.80;;;15.70;99.90;;;;;;5027051;28;20223;-64
2023/10/23 12:10:12;;;;;;;0.70;0.70;;;15.70;99.90;;;;;;5010309;28;20622;-64
2023/10/23 12:12:40;;;;;;;0.60;0.60;;;15.70;99.90;;;;;;5026280;28;20261;-64
2023/10/23 12:15:09;;;;;;;0.70;0.70;;;15.70;99.90;;;;;;5030129;28;20199;-65
2023/10/23 12:17:38;;;;;;;0.50;0.50;;;15.70;99.90;;;;;;5022180;28;20207;-65
2023/10/23 12:20:09;;;;;;;0.50;0.50;;;15.70;99.90;;;;;;5026503;28;20190;-64
2023/10/23 12:22:37;;;;;;;1.03;0.60;;;15.70;99.90;;;;;;5029454;28;20195;-65
2023/10/23 12:25:06;;;;;;;1.53;0.63;;;15.70;99.90;;;;;;5028219;28;20239;-65
2023/10/23 12:27:33;;;;;;;0.67;0.67;;;15.70;99.90;;;;;;5022713;28;20233;-65
2023/10/23 12:30:09;;;;;;;0.70;0.70;;;15.70;99.90;;;;;;5028685;28;20204;-65
2023/10/23 12:32:39;;;;;;;0.60;0.60;;;15.70;99.90;;;;;;5025493;28;20199;-64
2023/10/23 12:35:09;;;;;;;0.40;0.40;;;15.80;99.90;;;;;;5028462;28;20199;-64
2023/10/23 12:37:39;;;;;;;1.20;0.63;;;15.80;99.90;;;;;;5027213;28;20291;-64
2023/10/23 12:40:10;;;;;;;0.70;0.70;;;15.80;99.90;;;;;;5029057;28;20209;-64
2023/10/23 12:42:39;;;;;;;0.73;0.73;;;15.90;99.90;;;;;;5025195;28;20908;-64
2023/10/23 12:45:08;;;;;;;1.17;0.73;;;15.90;99.90;;;;;;5023488;28;20203;-63
2023/10/23 12:47:35;;;;;;;0.97;0.83;;;15.90;99.90;;;;;;5027142;28;20207;-63
2023/10/23 12:50:03;;;;;;;1.53;0.73;;;15.90;99.90;;;;;;5028448;28;20211;-63
2023/10/23 12:52:32;;;;;;;0.50;0.50;;;15.90;99.90;;;;;;5025592;28;20192;-64
2023/10/23 12:54:59;;;;;;;1.10;0.77;;;15.80;99.90;;;;;;5006354;28;20199;-64
2023/10/23 12:57:26;;;;;;;1.27;0.83;;;15.80;99.90;;;;;;5026375;28;20211;-65